WJA385 CYYZ-CYWG
Flight info
| Callsign | WJA385 |
|---|---|
| Flight time | 1h 33m |
| Altitude | 38000 |
| Route | URSAL4 KASED DCT PLN DCT CMX DCT GOVIT NORAK6 |
| Aircraft | B38M/M-SDE1FGHILORVWXY/HB1 |
Departure
| Time | 2026-05-08 18:11 |
|---|---|
| Airport | Toronto Pearson International Airport (CYYZ) |
Arrival
| Time | 2026-05-08 19:44 |
|---|---|
| Airport | Winnipeg / James Armstrong Richardson International Airport (CYWG) |
| Time | Latitude | Longitude | Altitude | Speed | Heading |
|---|---|---|---|---|---|
| 2026-05-08 17:51 | 43.68422 | -79.61885 | 573 ft | 0 kts | 300° |
| 2026-05-08 18:03 | 43.68421 | -79.61882 | 567 ft | 1 kts | 300° |
| 2026-05-08 18:03 | 43.68413 | -79.61862 | 574 ft | 3 kts | 295° |
| 2026-05-08 18:03 | 43.68404 | -79.61836 | 569 ft | 3 kts | 293° |
| 2026-05-08 18:03 | 43.68396 | -79.61810 | 569 ft | 3 kts | 298° |
| 2026-05-08 18:04 | 43.68387 | -79.61787 | 571 ft | 3 kts | 287° |
| 2026-05-08 18:04 | 43.68386 | -79.61763 | 568 ft | 3 kts | 251° |
| 2026-05-08 18:04 | 43.68396 | -79.61741 | 575 ft | 3 kts | 223° |
| 2026-05-08 18:04 | 43.68411 | -79.61724 | 575 ft | 2 kts | 218° |
| 2026-05-08 18:05 | 43.68414 | -79.61719 | 573 ft | 0 kts | 219° |
| 2026-05-08 18:07 | 43.68393 | -79.61737 | 575 ft | 6 kts | 208° |
| 2026-05-08 18:08 | 43.68352 | -79.61776 | 568 ft | 9 kts | 214° |
| 2026-05-08 18:08 | 43.68294 | -79.61818 | 571 ft | 11 kts | 186° |
| 2026-05-08 18:08 | 43.68226 | -79.61818 | 572 ft | 11 kts | 178° |
| 2026-05-08 18:08 | 43.68156 | -79.61829 | 566 ft | 12 kts | 205° |
| 2026-05-08 18:09 | 43.68108 | -79.61891 | 570 ft | 8 kts | 227° |
| 2026-05-08 18:09 | 43.68072 | -79.61945 | 570 ft | 40 kts | 234° |
| 2026-05-08 18:09 | 43.69080 | -79.63523 | 570 ft | 21 kts | 342° |
| 2026-05-08 18:09 | 43.69290 | -79.63418 | 564 ft | 1 kts | 1° |
| 2026-05-08 18:10 | 43.69312 | -79.63418 | 567 ft | 5 kts | 360° |
| 2026-05-08 18:10 | 43.69362 | -79.63432 | 567 ft | 9 kts | 331° |
| 2026-05-08 18:10 | 43.69400 | -79.63502 | 567 ft | 10 kts | 272° |
| 2026-05-08 18:10 | 43.69364 | -79.63578 | 566 ft | 10 kts | 226° |
| 2026-05-08 18:11 | 43.69258 | -79.63732 | 571 ft | 55 kts | 225° |
| 2026-05-08 18:11 | 43.68813 | -79.64378 | 573 ft | 131 kts | 226° |
| 2026-05-08 18:11 | 43.68057 | -79.65501 | 729 ft | 180 kts | 225° |
| 2026-05-08 18:11 | 43.67161 | -79.66892 | 1457 ft | 204 kts | 227° |
| 2026-05-08 18:12 | 43.66237 | -79.68357 | 2714 ft | 199 kts | 232° |
| 2026-05-08 18:12 | 43.65384 | -79.69921 | 3552 ft | 214 kts | 237° |
| 2026-05-08 18:12 | 43.64537 | -79.71592 | 4698 ft | 204 kts | 238° |
| 2026-05-08 18:12 | 43.63710 | -79.73226 | 5608 ft | 214 kts | 238° |
| 2026-05-08 18:13 | 43.62830 | -79.74968 | 6234 ft | 233 kts | 238° |
| 2026-05-08 18:13 | 43.61926 | -79.76940 | 6816 ft | 250 kts | 250° |
| 2026-05-08 18:13 | 43.61761 | -79.79334 | 7636 ft | 253 kts | 280° |
| 2026-05-08 18:13 | 43.62330 | -79.81601 | 8553 ft | 261 kts | 296° |
| 2026-05-08 18:14 | 43.63426 | -79.83647 | 9494 ft | 266 kts | 307° |
| 2026-05-08 18:14 | 43.64624 | -79.85636 | 10299 ft | 274 kts | 307° |
| 2026-05-08 18:14 | 43.65883 | -79.87721 | 10781 ft | 292 kts | 307° |
| 2026-05-08 18:14 | 43.67227 | -79.89928 | 11295 ft | 307 kts | 308° |
| 2026-05-08 18:15 | 43.68625 | -79.92204 | 12044 ft | 312 kts | 308° |
| 2026-05-08 18:15 | 43.70199 | -79.94265 | 12996 ft | 316 kts | 324° |
| 2026-05-08 18:15 | 43.72149 | -79.95695 | 13902 ft | 318 kts | 328° |
| 2026-05-08 18:15 | 43.74090 | -79.97113 | 14595 ft | 321 kts | 327° |
| 2026-05-08 18:16 | 43.76075 | -79.98547 | 15334 ft | 323 kts | 327° |
| 2026-05-08 18:16 | 43.78080 | -79.99985 | 16035 ft | 326 kts | 327° |
| 2026-05-08 18:16 | 43.80099 | -80.01429 | 16767 ft | 328 kts | 327° |
| 2026-05-08 18:16 | 43.82139 | -80.02885 | 17414 ft | 332 kts | 327° |
| 2026-05-08 18:17 | 43.84184 | -80.04347 | 18094 ft | 334 kts | 327° |
| 2026-05-08 18:17 | 43.86261 | -80.05831 | 18654 ft | 337 kts | 327° |
| 2026-05-08 18:17 | 43.88350 | -80.07325 | 19213 ft | 339 kts | 326° |
| 2026-05-08 18:17 | 43.90426 | -80.08811 | 19762 ft | 342 kts | 326° |
| 2026-05-08 18:18 | 43.92515 | -80.10381 | 20289 ft | 340 kts | 319° |
| 2026-05-08 18:18 | 43.94175 | -80.12642 | 20850 ft | 332 kts | 304° |
| 2026-05-08 18:18 | 43.95616 | -80.15172 | 21307 ft | 338 kts | 305° |
| 2026-05-08 18:18 | 43.97064 | -80.17749 | 21807 ft | 340 kts | 304° |
| 2026-05-08 18:19 | 43.98511 | -80.20365 | 22292 ft | 343 kts | 304° |
| 2026-05-08 18:19 | 43.99959 | -80.23012 | 22815 ft | 345 kts | 303° |
| 2026-05-08 18:19 | 44.01411 | -80.25683 | 23329 ft | 348 kts | 303° |
| 2026-05-08 18:19 | 44.02875 | -80.28388 | 23757 ft | 351 kts | 303° |
| 2026-05-08 18:20 | 44.04344 | -80.31107 | 24183 ft | 353 kts | 303° |
| 2026-05-08 18:20 | 44.05801 | -80.33810 | 24595 ft | 355 kts | 303° |
| 2026-05-08 18:20 | 44.07285 | -80.36564 | 25007 ft | 357 kts | 303° |
| 2026-05-08 18:20 | 44.08778 | -80.39338 | 25410 ft | 359 kts | 303° |
| 2026-05-08 18:21 | 44.10277 | -80.42126 | 25792 ft | 361 kts | 303° |
| 2026-05-08 18:21 | 44.11785 | -80.44933 | 26167 ft | 363 kts | 303° |
| 2026-05-08 18:21 | 44.13265 | -80.47786 | 26554 ft | 363 kts | 297° |
| 2026-05-08 18:21 | 44.14189 | -80.51034 | 26942 ft | 360 kts | 284° |
| 2026-05-08 18:22 | 44.14909 | -80.54387 | 27256 ft | 364 kts | 285° |
| 2026-05-08 18:22 | 44.15632 | -80.57775 | 27592 ft | 367 kts | 285° |
| 2026-05-08 18:22 | 44.16337 | -80.61159 | 27947 ft | 369 kts | 285° |
| 2026-05-08 18:22 | 44.17042 | -80.64605 | 28289 ft | 371 kts | 285° |
| 2026-05-08 18:23 | 44.17745 | -80.68069 | 28648 ft | 373 kts | 284° |
| 2026-05-08 18:23 | 44.18448 | -80.71552 | 28981 ft | 375 kts | 284° |
| 2026-05-08 18:23 | 44.19153 | -80.75057 | 29326 ft | 377 kts | 284° |
| 2026-05-08 18:23 | 44.19861 | -80.78579 | 29648 ft | 379 kts | 284° |
| 2026-05-08 18:24 | 44.20570 | -80.82119 | 29974 ft | 380 kts | 284° |
| 2026-05-08 18:24 | 44.21282 | -80.85679 | 30241 ft | 382 kts | 284° |
| 2026-05-08 18:24 | 44.21996 | -80.89255 | 30504 ft | 384 kts | 284° |
| 2026-05-08 18:24 | 44.22703 | -80.92805 | 30760 ft | 386 kts | 284° |
| 2026-05-08 18:25 | 44.23420 | -80.96409 | 31089 ft | 385 kts | 284° |
| 2026-05-08 18:25 | 44.24134 | -81.00002 | 31465 ft | 384 kts | 284° |
| 2026-05-08 18:25 | 44.24845 | -81.03586 | 31823 ft | 383 kts | 284° |
| 2026-05-08 18:25 | 44.25551 | -81.07159 | 32186 ft | 382 kts | 284° |
| 2026-05-08 18:26 | 44.26255 | -81.10724 | 32541 ft | 381 kts | 284° |
| 2026-05-08 18:26 | 44.26956 | -81.14278 | 32892 ft | 380 kts | 284° |
| 2026-05-08 18:26 | 44.27654 | -81.17826 | 33255 ft | 379 kts | 284° |
| 2026-05-08 18:26 | 44.28344 | -81.21338 | 33452 ft | 381 kts | 284° |
| 2026-05-08 18:27 | 44.29052 | -81.24948 | 33788 ft | 380 kts | 284° |
| 2026-05-08 18:27 | 44.29510 | -81.27290 | 33972 ft | 380 kts | 284° |
| 2026-05-08 18:27 | 44.30433 | -81.32014 | 34273 ft | 380 kts | 284° |
| 2026-05-08 18:27 | 44.31128 | -81.35576 | 34467 ft | 381 kts | 284° |
| 2026-05-08 18:28 | 44.31823 | -81.39146 | 34649 ft | 382 kts | 284° |
| 2026-05-08 18:28 | 44.32518 | -81.42724 | 34844 ft | 383 kts | 284° |
| 2026-05-08 18:28 | 44.33216 | -81.46321 | 35018 ft | 384 kts | 284° |
| 2026-05-08 18:28 | 44.33914 | -81.49927 | 35205 ft | 385 kts | 284° |
| 2026-05-08 18:29 | 44.34612 | -81.53542 | 35383 ft | 386 kts | 284° |
| 2026-05-08 18:29 | 44.35301 | -81.57113 | 35551 ft | 387 kts | 284° |
| 2026-05-08 18:29 | 44.36000 | -81.60745 | 35724 ft | 388 kts | 284° |
| 2026-05-08 18:29 | 44.36699 | -81.64382 | 35893 ft | 388 kts | 284° |
| 2026-05-08 18:30 | 44.37399 | -81.68037 | 36057 ft | 389 kts | 284° |
| 2026-05-08 18:30 | 44.38099 | -81.71692 | 36231 ft | 390 kts | 284° |
| 2026-05-08 18:30 | 44.38799 | -81.75356 | 36382 ft | 391 kts | 284° |
| 2026-05-08 18:30 | 44.39500 | -81.79033 | 36533 ft | 391 kts | 284° |
| 2026-05-08 18:31 | 44.40200 | -81.82713 | 36678 ft | 392 kts | 284° |
| 2026-05-08 18:31 | 44.40893 | -81.86356 | 36822 ft | 393 kts | 284° |
| 2026-05-08 18:31 | 44.41603 | -81.90103 | 36958 ft | 394 kts | 284° |
| 2026-05-08 18:31 | 44.42295 | -81.93761 | 37096 ft | 395 kts | 284° |
| 2026-05-08 18:32 | 44.42996 | -81.97476 | 37230 ft | 395 kts | 284° |
| 2026-05-08 18:32 | 44.43698 | -82.01200 | 37347 ft | 396 kts | 284° |
| 2026-05-08 18:32 | 44.44401 | -82.04930 | 37479 ft | 397 kts | 284° |
| 2026-05-08 18:32 | 44.45102 | -82.08661 | 37603 ft | 397 kts | 284° |
| 2026-05-08 18:33 | 44.45805 | -82.12408 | 37720 ft | 398 kts | 284° |
| 2026-05-08 18:33 | 44.46507 | -82.16155 | 37854 ft | 398 kts | 284° |
| 2026-05-08 18:33 | 44.47411 | -82.19815 | 37815 ft | 401 kts | 296° |
| 2026-05-08 18:33 | 44.48897 | -82.23029 | 37969 ft | 394 kts | 300° |
| 2026-05-08 18:34 | 44.50404 | -82.26247 | 37868 ft | 399 kts | 300° |
| 2026-05-08 18:34 | 44.52627 | -82.30891 | 37915 ft | 397 kts | 301° |
| 2026-05-08 18:34 | 44.58958 | -82.43789 | 37849 ft | 402 kts | 299° |
| 2026-05-08 18:35 | 44.65146 | -82.56720 | 37907 ft | 402 kts | 301° |
| 2026-05-08 18:35 | 44.71428 | -82.69706 | 37874 ft | 403 kts | 301° |
| 2026-05-08 18:36 | 44.77709 | -82.82733 | 37856 ft | 402 kts | 300° |
| 2026-05-08 18:36 | 44.83967 | -82.95814 | 37871 ft | 404 kts | 301° |
| 2026-05-08 18:37 | 44.90215 | -83.08937 | 37848 ft | 404 kts | 301° |
| 2026-05-08 18:37 | 44.96430 | -83.22020 | 37838 ft | 405 kts | 300° |
| 2026-05-08 18:38 | 45.02700 | -83.35332 | 37863 ft | 408 kts | 301° |
| 2026-05-08 18:38 | 45.08993 | -83.48704 | 37848 ft | 408 kts | 301° |
| 2026-05-08 18:39 | 45.15273 | -83.62129 | 37854 ft | 408 kts | 300° |
| 2026-05-08 18:39 | 45.21556 | -83.75562 | 37872 ft | 409 kts | 301° |
| 2026-05-08 18:40 | 45.27760 | -83.89017 | 37833 ft | 410 kts | 300° |
| 2026-05-08 18:40 | 45.34013 | -84.02589 | 37848 ft | 410 kts | 300° |
| 2026-05-08 18:41 | 45.40263 | -84.16172 | 37853 ft | 411 kts | 300° |
| 2026-05-08 18:41 | 45.46482 | -84.29795 | 37846 ft | 411 kts | 301° |
| 2026-05-08 18:42 | 45.52676 | -84.43350 | 37829 ft | 410 kts | 301° |
| 2026-05-08 18:42 | 45.58857 | -84.57031 | 37837 ft | 410 kts | 300° |
| 2026-05-08 18:43 | 45.64937 | -84.70838 | 37849 ft | 410 kts | 299° |
| 2026-05-08 18:43 | 45.70938 | -84.84763 | 37864 ft | 412 kts | 299° |
| 2026-05-08 18:44 | 45.76920 | -84.98765 | 37858 ft | 413 kts | 299° |
| 2026-05-08 18:44 | 45.82855 | -85.12733 | 37856 ft | 414 kts | 299° |
| 2026-05-08 18:45 | 45.88796 | -85.26820 | 37835 ft | 414 kts | 300° |
| 2026-05-08 18:45 | 45.94770 | -85.40940 | 37816 ft | 415 kts | 299° |
| 2026-05-08 18:46 | 46.00714 | -85.55145 | 37802 ft | 415 kts | 299° |
| 2026-05-08 18:46 | 46.06621 | -85.69276 | 37806 ft | 414 kts | 299° |
| 2026-05-08 18:47 | 46.12525 | -85.83567 | 37827 ft | 415 kts | 298° |
| 2026-05-08 18:47 | 46.18448 | -85.97889 | 37834 ft | 416 kts | 299° |
| 2026-05-08 18:48 | 46.24335 | -86.12269 | 37819 ft | 416 kts | 299° |
| 2026-05-08 18:48 | 46.30219 | -86.26654 | 37815 ft | 416 kts | 299° |
| 2026-05-08 18:49 | 46.36107 | -86.41090 | 37816 ft | 418 kts | 298° |
| 2026-05-08 18:49 | 46.41916 | -86.55527 | 37809 ft | 418 kts | 298° |
| 2026-05-08 18:50 | 46.47755 | -86.70070 | 37816 ft | 417 kts | 298° |
| 2026-05-08 18:50 | 46.53594 | -86.84632 | 37843 ft | 417 kts | 298° |
| 2026-05-08 18:51 | 46.59414 | -86.99242 | 37816 ft | 419 kts | 298° |
| 2026-05-08 18:51 | 46.65153 | -87.13815 | 37814 ft | 418 kts | 298° |
| 2026-05-08 18:52 | 46.70936 | -87.28471 | 37791 ft | 417 kts | 298° |
| 2026-05-08 18:52 | 46.76691 | -87.43133 | 37773 ft | 417 kts | 298° |
| 2026-05-08 18:53 | 46.82405 | -87.57846 | 37757 ft | 417 kts | 298° |
| 2026-05-08 18:53 | 46.88111 | -87.72577 | 37751 ft | 417 kts | 297° |
| 2026-05-08 18:54 | 46.93746 | -87.87257 | 37768 ft | 416 kts | 298° |
| 2026-05-08 18:54 | 46.99417 | -88.02063 | 37769 ft | 418 kts | 298° |
| 2026-05-08 18:55 | 47.07895 | -88.24354 | 37778 ft | 417 kts | 298° |
| 2026-05-08 18:56 | 47.13545 | -88.39243 | 37771 ft | 417 kts | 298° |
| 2026-05-08 18:56 | 47.19121 | -88.54189 | 37777 ft | 418 kts | 297° |
| 2026-05-08 18:57 | 47.24657 | -88.69128 | 37763 ft | 418 kts | 297° |
| 2026-05-08 18:57 | 47.30215 | -88.84163 | 37775 ft | 417 kts | 297° |
| 2026-05-08 18:58 | 47.35708 | -88.99288 | 37749 ft | 418 kts | 297° |
| 2026-05-08 18:58 | 47.41235 | -89.14400 | 37764 ft | 419 kts | 297° |
| 2026-05-08 18:59 | 47.46727 | -89.29596 | 37776 ft | 419 kts | 297° |
| 2026-05-08 18:59 | 47.52186 | -89.44715 | 37779 ft | 419 kts | 297° |
| 2026-05-08 19:00 | 47.56737 | -89.57409 | 37772 ft | 419 kts | 297° |
| 2026-05-08 19:00 | 47.63079 | -89.75296 | 37778 ft | 421 kts | 297° |
| 2026-05-08 19:01 | 47.68515 | -89.90677 | 37756 ft | 421 kts | 297° |
| 2026-05-08 19:01 | 47.73943 | -90.06062 | 37746 ft | 421 kts | 297° |
| 2026-05-08 19:02 | 47.79291 | -90.21384 | 37741 ft | 421 kts | 297° |
| 2026-05-08 19:02 | 47.84653 | -90.36849 | 37683 ft | 421 kts | 297° |
| 2026-05-08 19:03 | 47.90021 | -90.52352 | 37697 ft | 422 kts | 296° |
| 2026-05-08 19:03 | 47.95358 | -90.67925 | 37711 ft | 422 kts | 296° |
| 2026-05-08 19:04 | 48.00652 | -90.83389 | 37713 ft | 422 kts | 296° |
| 2026-05-08 19:04 | 48.05939 | -90.99032 | 37712 ft | 421 kts | 296° |
| 2026-05-08 19:05 | 48.11241 | -91.14651 | 37707 ft | 421 kts | 297° |
| 2026-05-08 19:05 | 48.16475 | -91.30335 | 37724 ft | 420 kts | 296° |
| 2026-05-08 19:06 | 48.21679 | -91.45905 | 37747 ft | 419 kts | 296° |
| 2026-05-08 19:06 | 48.26887 | -91.61638 | 37717 ft | 422 kts | 296° |
| 2026-05-08 19:07 | 48.32070 | -91.77429 | 37694 ft | 421 kts | 296° |
| 2026-05-08 19:07 | 48.37238 | -91.93197 | 37699 ft | 420 kts | 297° |
| 2026-05-08 19:08 | 48.42345 | -92.08898 | 37726 ft | 420 kts | 296° |
| 2026-05-08 19:08 | 48.47462 | -92.24738 | 37725 ft | 420 kts | 297° |
| 2026-05-08 19:09 | 48.52544 | -92.40573 | 37725 ft | 420 kts | 296° |
| 2026-05-08 19:09 | 48.57635 | -92.56489 | 37726 ft | 420 kts | 296° |
| 2026-05-08 19:10 | 48.62620 | -92.72325 | 37723 ft | 420 kts | 296° |
| 2026-05-08 19:10 | 48.67654 | -92.88233 | 37722 ft | 419 kts | 296° |
| 2026-05-08 19:11 | 48.72634 | -93.04203 | 37718 ft | 420 kts | 296° |
| 2026-05-08 19:11 | 48.77602 | -93.20055 | 37698 ft | 419 kts | 296° |
| 2026-05-08 19:12 | 48.82542 | -93.36060 | 37721 ft | 418 kts | 296° |
| 2026-05-08 19:12 | 48.87430 | -93.51982 | 37717 ft | 419 kts | 296° |
| 2026-05-08 19:13 | 48.92308 | -93.68050 | 37716 ft | 419 kts | 295° |
| 2026-05-08 19:13 | 48.96910 | -93.83209 | 37705 ft | 418 kts | 296° |
| 2026-05-08 19:14 | 48.99343 | -93.91265 | 37702 ft | 419 kts | 296° |
| 2026-05-08 19:14 | 49.01767 | -93.99326 | 37730 ft | 419 kts | 296° |
| 2026-05-08 19:15 | 49.04173 | -94.07354 | 37732 ft | 419 kts | 296° |
| 2026-05-08 19:15 | 49.05380 | -94.11391 | 37442 ft | 416 kts | 296° |
| 2026-05-08 19:15 | 49.06575 | -94.15394 | 36822 ft | 414 kts | 296° |
| 2026-05-08 19:15 | 49.07760 | -94.19371 | 36427 ft | 408 kts | 296° |
| 2026-05-08 19:16 | 49.08918 | -94.23265 | 36137 ft | 399 kts | 296° |
| 2026-05-08 19:16 | 49.10050 | -94.27072 | 35845 ft | 390 kts | 296° |
| 2026-05-08 19:16 | 49.11176 | -94.30868 | 35377 ft | 396 kts | 296° |
| 2026-05-08 19:16 | 49.12298 | -94.34659 | 34812 ft | 398 kts | 296° |
| 2026-05-08 19:17 | 49.13450 | -94.38555 | 34272 ft | 396 kts | 296° |
| 2026-05-08 19:17 | 49.14560 | -94.42315 | 33804 ft | 393 kts | 296° |
| 2026-05-08 19:17 | 49.15674 | -94.46098 | 33265 ft | 390 kts | 296° |
| 2026-05-08 19:17 | 49.16786 | -94.49875 | 32754 ft | 387 kts | 296° |
| 2026-05-08 19:18 | 49.17882 | -94.53604 | 32298 ft | 382 kts | 296° |
| 2026-05-08 19:18 | 49.18963 | -94.57290 | 31859 ft | 378 kts | 296° |
| 2026-05-08 19:18 | 49.20032 | -94.60939 | 31397 ft | 374 kts | 296° |
| 2026-05-08 19:18 | 49.21089 | -94.64555 | 30957 ft | 371 kts | 296° |
| 2026-05-08 19:19 | 49.22136 | -94.68139 | 30533 ft | 368 kts | 296° |
| 2026-05-08 19:19 | 49.23169 | -94.71681 | 30096 ft | 364 kts | 296° |
| 2026-05-08 19:19 | 49.24187 | -94.75178 | 29658 ft | 361 kts | 296° |
| 2026-05-08 19:19 | 49.25202 | -94.78668 | 29163 ft | 358 kts | 296° |
| 2026-05-08 19:20 | 49.26205 | -94.82122 | 28751 ft | 353 kts | 296° |
| 2026-05-08 19:20 | 49.26542 | -94.83282 | 28625 ft | 351 kts | 296° |
| 2026-05-08 19:20 | 49.28169 | -94.88900 | 27951 ft | 343 kts | 296° |
| 2026-05-08 19:20 | 49.29129 | -94.92220 | 27580 ft | 339 kts | 296° |
| 2026-05-08 19:21 | 49.30075 | -94.95496 | 27207 ft | 334 kts | 296° |
| 2026-05-08 19:21 | 49.31010 | -94.98737 | 26854 ft | 330 kts | 296° |
| 2026-05-08 19:21 | 49.31929 | -95.01931 | 26491 ft | 326 kts | 296° |
| 2026-05-08 19:21 | 49.32828 | -95.05055 | 26146 ft | 322 kts | 296° |
| 2026-05-08 19:22 | 49.33727 | -95.08184 | 25798 ft | 319 kts | 296° |
| 2026-05-08 19:22 | 49.34614 | -95.11273 | 25458 ft | 315 kts | 296° |
| 2026-05-08 19:22 | 49.35490 | -95.14330 | 25123 ft | 312 kts | 296° |
| 2026-05-08 19:22 | 49.36373 | -95.17411 | 24789 ft | 317 kts | 296° |
| 2026-05-08 19:23 | 49.37265 | -95.20527 | 24456 ft | 321 kts | 295° |
| 2026-05-08 19:23 | 49.38161 | -95.23662 | 24120 ft | 320 kts | 295° |
| 2026-05-08 19:23 | 49.39052 | -95.26786 | 23793 ft | 319 kts | 296° |
| 2026-05-08 19:23 | 49.39938 | -95.29895 | 23460 ft | 317 kts | 295° |
| 2026-05-08 19:24 | 49.40817 | -95.32981 | 23132 ft | 315 kts | 296° |
| 2026-05-08 19:24 | 49.41680 | -95.36016 | 22721 ft | 313 kts | 296° |
| 2026-05-08 19:24 | 49.42544 | -95.39061 | 22390 ft | 309 kts | 296° |
| 2026-05-08 19:24 | 49.43396 | -95.42063 | 22085 ft | 304 kts | 296° |
| 2026-05-08 19:25 | 49.44232 | -95.45018 | 21785 ft | 299 kts | 296° |
| 2026-05-08 19:25 | 49.45055 | -95.47926 | 21486 ft | 294 kts | 296° |
| 2026-05-08 19:25 | 49.45865 | -95.50791 | 21193 ft | 290 kts | 296° |
| 2026-05-08 19:25 | 49.46661 | -95.53611 | 20903 ft | 288 kts | 296° |
| 2026-05-08 19:26 | 49.47467 | -95.56471 | 20600 ft | 294 kts | 296° |
| 2026-05-08 19:26 | 49.48007 | -95.58389 | 20404 ft | 297 kts | 296° |
| 2026-05-08 19:26 | 49.49106 | -95.62294 | 20009 ft | 297 kts | 296° |
| 2026-05-08 19:26 | 49.49914 | -95.65170 | 19713 ft | 296 kts | 296° |
| 2026-05-08 19:27 | 49.50727 | -95.68070 | 19404 ft | 295 kts | 296° |
| 2026-05-08 19:27 | 49.51536 | -95.70954 | 19115 ft | 293 kts | 296° |
| 2026-05-08 19:27 | 49.52341 | -95.73831 | 18833 ft | 291 kts | 296° |
| 2026-05-08 19:27 | 49.53140 | -95.76689 | 18515 ft | 290 kts | 296° |
| 2026-05-08 19:28 | 49.53934 | -95.79532 | 18225 ft | 287 kts | 296° |
| 2026-05-08 19:28 | 49.54449 | -95.81396 | 18049 ft | 284 kts | 295° |
| 2026-05-08 19:28 | 49.55212 | -95.84199 | 17652 ft | 282 kts | 295° |
| 2026-05-08 19:28 | 49.55966 | -95.86947 | 17468 ft | 274 kts | 295° |
| 2026-05-08 19:29 | 49.56697 | -95.89603 | 17301 ft | 269 kts | 295° |
| 2026-05-08 19:29 | 49.57443 | -95.92305 | 17040 ft | 278 kts | 295° |
| 2026-05-08 19:29 | 49.58457 | -95.95981 | 16668 ft | 284 kts | 295° |
| 2026-05-08 19:29 | 49.59228 | -95.98778 | 16411 ft | 284 kts | 295° |
| 2026-05-08 19:30 | 49.59995 | -96.01566 | 16154 ft | 280 kts | 295° |
| 2026-05-08 19:30 | 49.60498 | -96.03394 | 15935 ft | 279 kts | 295° |
| 2026-05-08 19:30 | 49.61248 | -96.06120 | 15657 ft | 274 kts | 295° |
| 2026-05-08 19:30 | 49.61984 | -96.08802 | 15408 ft | 270 kts | 295° |
| 2026-05-08 19:31 | 49.62710 | -96.11449 | 15106 ft | 266 kts | 295° |
| 2026-05-08 19:31 | 49.63429 | -96.14076 | 14849 ft | 268 kts | 295° |
| 2026-05-08 19:31 | 49.64162 | -96.16755 | 14575 ft | 274 kts | 295° |
| 2026-05-08 19:31 | 49.64906 | -96.19475 | 14278 ft | 276 kts | 295° |
| 2026-05-08 19:32 | 49.65652 | -96.22208 | 14017 ft | 276 kts | 295° |
| 2026-05-08 19:32 | 49.66396 | -96.24935 | 13727 ft | 274 kts | 295° |
| 2026-05-08 19:32 | 49.67130 | -96.27632 | 13429 ft | 271 kts | 295° |
| 2026-05-08 19:32 | 49.67847 | -96.30268 | 13121 ft | 268 kts | 295° |
| 2026-05-08 19:33 | 49.68563 | -96.32902 | 12815 ft | 264 kts | 295° |
| 2026-05-08 19:33 | 49.69266 | -96.35491 | 12563 ft | 259 kts | 295° |
| 2026-05-08 19:33 | 49.69954 | -96.38030 | 12298 ft | 258 kts | 295° |
| 2026-05-08 19:33 | 49.70658 | -96.40630 | 12038 ft | 264 kts | 295° |
| 2026-05-08 19:34 | 49.71371 | -96.43265 | 11758 ft | 268 kts | 295° |
| 2026-05-08 19:34 | 49.72078 | -96.45880 | 11486 ft | 267 kts | 295° |
| 2026-05-08 19:34 | 49.72806 | -96.48573 | 11205 ft | 267 kts | 295° |
| 2026-05-08 19:34 | 49.73517 | -96.51210 | 10985 ft | 264 kts | 295° |
| 2026-05-08 19:35 | 49.73964 | -96.53959 | 10666 ft | 267 kts | 279° |
| 2026-05-08 19:35 | 49.74162 | -96.56776 | 10326 ft | 267 kts | 280° |
| 2026-05-08 19:35 | 49.74368 | -96.59622 | 9956 ft | 267 kts | 280° |
| 2026-05-08 19:35 | 49.74573 | -96.62471 | 9600 ft | 267 kts | 280° |
| 2026-05-08 19:36 | 49.74775 | -96.65295 | 9207 ft | 267 kts | 280° |
| 2026-05-08 19:36 | 49.74979 | -96.68156 | 8811 ft | 268 kts | 279° |
| 2026-05-08 19:36 | 49.75183 | -96.71014 | 8443 ft | 267 kts | 279° |
| 2026-05-08 19:36 | 49.75385 | -96.73868 | 8068 ft | 267 kts | 279° |
| 2026-05-08 19:37 | 49.75588 | -96.76729 | 7706 ft | 267 kts | 279° |
| 2026-05-08 19:37 | 49.75784 | -96.79519 | 7360 ft | 255 kts | 279° |
| 2026-05-08 19:37 | 49.75972 | -96.82194 | 7005 ft | 245 kts | 278° |
| 2026-05-08 19:37 | 49.76149 | -96.84732 | 6659 ft | 236 kts | 278° |
| 2026-05-08 19:38 | 49.76322 | -96.87217 | 6338 ft | 228 kts | 278° |
| 2026-05-08 19:38 | 49.76489 | -96.89609 | 6037 ft | 220 kts | 278° |
| 2026-05-08 19:38 | 49.76649 | -96.91912 | 5708 ft | 212 kts | 279° |
| 2026-05-08 19:38 | 49.76803 | -96.94140 | 5403 ft | 204 kts | 279° |
| 2026-05-08 19:39 | 49.76950 | -96.96276 | 5098 ft | 196 kts | 278° |
| 2026-05-08 19:39 | 49.77091 | -96.98329 | 4820 ft | 188 kts | 278° |
| 2026-05-08 19:39 | 49.77227 | -97.00312 | 4580 ft | 185 kts | 278° |
| 2026-05-08 19:39 | 49.77362 | -97.02289 | 4371 ft | 184 kts | 279° |
| 2026-05-08 19:40 | 49.77496 | -97.04229 | 4112 ft | 184 kts | 278° |
| 2026-05-08 19:40 | 49.77769 | -97.06137 | 3803 ft | 183 kts | 301° |
| 2026-05-08 19:40 | 49.78591 | -97.07604 | 3515 ft | 180 kts | 314° |
| 2026-05-08 19:40 | 49.79446 | -97.08944 | 3359 ft | 167 kts | 315° |
| 2026-05-08 19:41 | 49.80266 | -97.10135 | 3191 ft | 158 kts | 317° |
| 2026-05-08 19:41 | 49.81071 | -97.11247 | 3008 ft | 154 kts | 317° |
| 2026-05-08 19:41 | 49.81868 | -97.12341 | 2831 ft | 154 kts | 317° |
| 2026-05-08 19:41 | 49.82666 | -97.13432 | 2667 ft | 148 kts | 317° |
| 2026-05-08 19:42 | 49.83425 | -97.14465 | 2469 ft | 143 kts | 317° |
| 2026-05-08 19:42 | 49.84156 | -97.15465 | 2315 ft | 141 kts | 317° |
| 2026-05-08 19:42 | 49.84894 | -97.16473 | 2099 ft | 137 kts | 317° |
| 2026-05-08 19:42 | 49.85579 | -97.17407 | 1897 ft | 127 kts | 317° |
| 2026-05-08 19:43 | 49.86236 | -97.18304 | 1730 ft | 125 kts | 317° |
| 2026-05-08 19:43 | 49.86881 | -97.19183 | 1527 ft | 122 kts | 318° |
| 2026-05-08 19:43 | 49.87514 | -97.20049 | 1348 ft | 122 kts | 319° |
| 2026-05-08 19:43 | 49.88137 | -97.20910 | 1170 ft | 121 kts | 320° |
| 2026-05-08 19:44 | 49.88777 | -97.21785 | 1002 ft | 122 kts | 318° |
| 2026-05-08 19:44 | 49.89412 | -97.22639 | 846 ft | 119 kts | 319° |
| 2026-05-08 19:44 | 49.90012 | -97.23465 | 791 ft | 106 kts | 320° |
| 2026-05-08 19:44 | 49.90383 | -97.23965 | 788 ft | 39 kts | 318° |
| 2026-05-08 19:45 | 49.90559 | -97.24209 | 791 ft | 24 kts | 318° |
| 2026-05-08 19:45 | 49.90654 | -97.24337 | 791 ft | 15 kts | 326° |
| 2026-05-08 19:45 | 49.90733 | -97.24305 | 790 ft | 11 kts | 61° |
| 2026-05-08 19:45 | 49.90758 | -97.24136 | 789 ft | 21 kts | 78° |
| 2026-05-08 19:46 | 49.90791 | -97.23882 | 791 ft | 27 kts | 79° |
| 2026-05-08 19:46 | 49.90822 | -97.23647 | 789 ft | 20 kts | 79° |
| 2026-05-08 19:46 | 49.90873 | -97.23179 | 789 ft | 14 kts | 85° |
| 2026-05-08 19:47 | 49.90882 | -97.23031 | 789 ft | 11 kts | 84° |
| 2026-05-08 19:47 | 49.90888 | -97.22923 | 789 ft | 9 kts | 84° |
| 2026-05-08 19:47 | 49.90874 | -97.22826 | 789 ft | 10 kts | 127° |
| 2026-05-08 19:47 | 49.90829 | -97.22731 | 789 ft | 11 kts | 126° |
| 2026-05-08 19:48 | 49.90796 | -97.22660 | 789 ft | 8 kts | 126° |
| 2026-05-08 19:48 | 49.90766 | -97.22589 | 789 ft | 8 kts | 112° |
| 2026-05-08 19:48 | 49.90757 | -97.22524 | 789 ft | 5 kts | 119° |
| 2026-05-08 19:48 | 49.90724 | -97.22508 | 789 ft | 6 kts | 174° |
| 2026-05-08 19:49 | 49.90698 | -97.22504 | 789 ft | 3 kts | 174° |
| 2026-05-08 19:49 | 49.90688 | -97.22502 | 789 ft | 0 kts | 174° |